Bookmark and Share
Track history (hours):
 

Smitwijs London

Last reported at 2012-Oct-21 04:28 UTC. Time now 2014-Apr-21 15:18 UTC.
Position N 49°55' W 003°02'.
Warning: this ship's position is years out of date!

Length 75 m; beam 16 m.

Type: Tug. MMSI: 244098956.

NotesDate/timePositionNaut miles runAvg speedWind from/ knotsBaromVisibWave heightAir tempDewpointWater temp
2012-Oct-21 04:28N 49°55' W 003°02'9 9.7
2012-Oct-21 03:31N 49°59' W 002°49'9 8.8
2012-Oct-21 02:27N 50°02' W 002°35'8 7.4
2012-Oct-21 01:24N 50°03' W 002°23'12 6.0
2012-Oct-20 23:25N 50°06' W 002°05'5 5.2
2012-Oct-20 22:25N 50°08' W 001°57'5 5.9
2012-Oct-20 21:30N 50°09' W 001°49'82 9.2
2012-Oct-20 12:32N 50°31' E 000°15'7 6.1
2012-Oct-20 11:27N 50°33' E 000°25'5 6.5
2012-Oct-20 10:39N 50°34' E 000°33'9 7.7
2012-Oct-20 09:31N 50°38' E 000°45'9 8.9
2012-Oct-20 08:32N 50°43' E 000°56'31 7.8
2012-Oct-20 04:36N 51°04' E 001°32'5 4.8
2012-Oct-20 03:32N 51°07' E 001°38'5 4.8
2012-Oct-20 02:33N 51°11' E 001°42'6 5.8
2012-Oct-20 01:32N 51°16' E 001°47'7 7.5
2012-Oct-20 00:33N 51°22' E 001°54'8 6.9
2012-Oct-19 23:28N 51°22' E 002°06'8 8.8
2012-Oct-19 22:33N 51°21' E 002°19'1010.0
2012-Oct-19 21:33N 51°23' E 002°35'9 9.0
2012-Oct-19 20:34N 51°22' E 002°49'8 7.6
2012-Oct-19 19:33N 51°24' E 003°01'7 6.9
2012-Oct-19 18:33N 51°24' E 003°12'7 6.7
2012-Oct-19 17:33N 51°25' E 003°23'6 6.4
2012-Oct-19 16:33N 51°26' E 003°33'5 4.9
2012-Oct-19 15:34N 51°27' E 003°40'1 1.4
2012-Oct-19 14:31N 51°27' E 003°43'2 1.6
2012-Oct-19 13:31N 51°28' E 003°42'0 0.0
2012-Oct-19 12:31N 51°28' E 003°42'0 0.0
2012-Oct-19 11:31N 51°28' E 003°42'0 0.0
2012-Oct-19 10:37N 51°28' E 003°42'0 0.0
2012-Oct-19 09:31N 51°28' E 003°42'0 0.0
2012-Oct-19 08:32N 51°28' E 003°42'0 0.0
2012-Oct-19 07:31N 51°28' E 003°42'  
2012-Oct-15 15:33N 51°28' E 003°42'1 0.5
2012-Oct-15 14:33N 51°27' E 003°41'2 2.4
2012-Oct-15 13:33N 51°26' E 003°38'7 6.7
2012-Oct-15 12:33N 51°25' E 003°28'10 9.9
2012-Oct-15 11:33N 51°24' E 003°12'9 9.4
2012-Oct-15 10:37N 51°24' E 002°58'8 7.7
2012-Oct-15 09:33N 51°22' E 002°45'6 5.7
2012-Oct-15 08:33N 51°22' E 002°36'6 5.8
2012-Oct-15 07:33N 51°21' E 002°26'5 5.1
2012-Oct-15 06:33N 51°18' E 002°20'5 4.8
2012-Oct-15 05:33N 51°15' E 002°13'5 5.0
2012-Oct-15 04:37N 51°13' E 002°07'6 5.7
2012-Oct-15 03:32N 51°11' E 001°58'6 6.5
2012-Oct-15 02:33N 51°08' E 001°49'8 7.2
2012-Oct-15 01:28N 51°02' E 001°40'44 8.7
2012-Oct-14 20:25N 50°28' E 000°57'  

Dump ship's entire track history

sailing weather and tide predictions

Smitwijs London — PCBI — position and weather